Time;durP1;ratioP1;P1;durP2;ratioP2;P2;SDS_P1;SDS_P2;PMS_P1;PMS_P2;Temp;Humidity;BMP_temperature;BMP_pressure;BME280_temperature;BME280_humidity;BME280_pressure;Samples;Min_cycle;Max_cycle;Signal;HPM_P1;HPM_P2
2022/04/12 00:01:14;;;;;;;;;;;;;;;-145.06;0.00;60892.56;4873741;28;19932;-91
2022/04/12 00:03:53;;;;;;;;;;;;;;;-145.06;0.00;60892.56;4872404;28;19921;-90
2022/04/12 00:06:36;;;;;;;;;;;;;;;-145.06;0.00;60892.56;4879880;28;19917;-91
2022/04/12 00:09:15;;;;;;;;;;;;;;;-145.06;0.00;60892.56;4879476;28;19979;-90
2022/04/12 00:11:54;;;;;;;;;;;;;;;-145.06;0.00;60892.56;4884832;28;19948;-90
2022/04/12 00:14:33;;;;;;;;;;;;;;;-145.06;0.00;60892.56;4872454;28;19924;-90
2022/04/12 00:20:12;;;;;;;;;;;;;;;-145.06;0.00;60892.56;4897273;28;19921;-89
2022/04/12 00:22:50;;;;;;;;;;;;;;;-145.06;0.00;60892.56;4878157;28;19920;-89
2022/04/12 00:25:29;;;;;;;;;;;;;;;-145.06;0.00;60892.56;4880697;28;20027;-89
2022/04/12 00:28:08;;;;;;;;;;;;;;;-145.06;0.00;60892.56;4880403;28;19916;-90
2022/04/12 00:30:48;;;;;;;;;;;;;;;-145.06;0.00;60892.56;4879826;28;19924;-89
2022/04/12 00:33:27;;;;;;;;;;;;;;;-145.06;0.00;60892.56;4872972;28;19987;-90
2022/04/12 00:36:06;;;;;;;;;;;;;;;-145.06;0.00;60892.56;4877803;28;19916;-89
2022/04/12 00:38:45;;;;;;;;;;;;;;;-145.06;0.00;60892.56;4877057;28;19917;-90
2022/04/12 00:41:24;;;;;;;;;;;;;;;-145.06;0.00;60892.56;4879606;28;19985;-90
2022/04/12 00:44:06;;;;;;;;;;;;;;;-145.06;0.00;60892.56;4876223;28;19921;-90
2022/04/12 00:46:46;;;;;;;;;;;;;;;-145.06;0.00;60892.56;4893976;28;19920;-90
2022/04/12 00:49:25;;;;;;;;;;;;;;;-145.06;0.00;60892.56;4877322;28;20390;-90
2022/04/12 00:52:05;;;;;;;;;;;;;;;-145.06;0.00;60892.56;4873839;28;20425;-90
2022/04/12 00:54:44;;;;;;;;;;;;;;;-145.06;0.00;60892.56;4861530;28;19925;-90
2022/04/12 00:57:23;;;;;;;;;;;;;;;-145.06;0.00;60892.56;4900429;28;19912;-90
2022/04/12 01:00:04;;;;;;;;;;;;;;;-145.06;0.00;60892.56;4874557;28;19921;-90
2022/04/12 01:02:43;;;;;;;;;;;;;;;-145.06;0.00;60892.56;4879595;28;19912;-91
2022/04/12 01:05:22;;;;;;;;;;;;;;;-145.06;0.00;60892.56;4895180;28;19916;-90
2022/04/12 01:08:01;;;;;;;;;;;;;;;-145.06;0.00;60892.56;4876148;28;19948;-92
2022/04/12 01:10:40;;;;;;;;;;;;;;;-145.06;0.00;60892.56;4892507;28;19959;-90
2022/04/12 01:13:20;;;;;;;;;;;;;;;-145.06;0.00;60892.56;4879533;28;19916;-89
2022/04/12 01:15:59;;;;;;;;;;;;;;;-145.06;0.00;60892.56;4881801;28;19920;-90
2022/04/12 01:18:38;;;;;;;;;;;;;;;-145.06;0.00;60892.56;4893611;28;20002;-91
2022/04/12 01:21:17;;;;;;;;;;;;;;;-145.06;0.00;60892.56;4870638;28;19916;-89
2022/04/12 01:24:03;;;;;;;;;;;;;;;-145.06;0.00;60892.56;4872323;28;19920;-90
2022/04/12 01:26:42;;;;;;;;;;;;;;;-145.06;0.00;60892.56;4911740;28;19955;-91
2022/04/12 01:29:32;;;;;;;;;;;;;;;-145.06;0.00;60892.56;4881635;28;19925;-91
2022/04/12 01:32:12;;;;;;;;;;;;;;;-145.06;0.00;60892.56;4870520;28;20282;-90
2022/04/12 01:34:51;;;;;;;;;;;;;;;-145.06;0.00;60892.56;4879724;28;20374;-92
2022/04/12 01:37:30;;;;;;;;;;;;;;;-145.06;0.00;60892.56;4901250;28;19916;-90
2022/04/12 01:40:11;;;;;;;;;;;;;;;-145.06;0.00;60892.56;4876203;28;19917;-89
2022/04/12 01:42:52;;;;;;;;;;;;;;;-145.06;0.00;60892.56;4869418;28;20354;-91
2022/04/12 01:45:31;;;;;;;;;;;;;;;-145.06;0.00;60892.56;4872498;28;19916;-89
2022/04/12 01:48:10;;;;;;;;;;;;;;;-145.06;0.00;60892.56;4901104;28;19921;-90
2022/04/12 01:50:49;;;;;;;;;;;;;;;-145.06;0.00;60892.56;4878917;28;20386;-89
2022/04/12 01:53:28;;;;;;;;;;;;;;;-145.06;0.00;60892.56;4900619;28;19935;-90
2022/04/12 01:56:07;;;;;;;;;;;;;;;-145.06;0.00;60892.56;4879488;28;20390;-89
2022/04/12 01:58:46;;;;;;;;;;;;;;;-145.06;0.00;60892.56;4900976;28;19920;-89
2022/04/12 02:01:28;;;;;;;;;;;;;;;-145.06;0.00;60892.56;4868162;28;20382;-91
2022/04/12 02:04:07;;;;;;;;;;;;;;;-145.06;0.00;60892.56;4869031;28;20414;-91
2022/04/12 02:06:49;;;;;;;;;;;;;;;-145.06;0.00;60892.56;4876208;28;20059;-91
2022/04/12 02:09:28;;;;;;;;;;;;;;;-145.06;0.00;60892.56;4886598;28;19921;-91
2022/04/12 02:12:07;;;;;;;;;;;;;;;-145.06;0.00;60892.56;4869892;28;19916;-89
2022/04/12 02:14:48;;;;;;;;;;;;;;;-145.06;0.00;60892.56;4878320;28;20266;-91
2022/04/12 02:17:27;;;;;;;;;;;;;;;-145.06;0.00;60892.56;4870953;28;19995;-91
2022/04/12 02:20:06;;;;;;;;;;;;;;;-145.06;0.00;60892.56;4864020;28;19921;-91
2022/04/12 02:22:45;;;;;;;;;;;;;;;-145.06;0.00;60892.56;4870698;28;19920;-91
2022/04/12 02:25:27;;;;;;;;;;;;;;;-145.06;0.00;60892.56;4873114;28;19912;-90
2022/04/12 02:28:06;;;;;;;;;;;;;;;-145.06;0.00;60892.56;4877707;28;19964;-91
2022/04/12 02:30:45;;;;;;;;;;;;;;;-145.06;0.00;60892.56;4875539;28;20463;-90
2022/04/12 02:33:24;;;;;;;;;;;;;;;-145.06;0.00;60892.56;4870866;28;19924;-90
2022/04/12 02:36:06;;;;;;;;;;;;;;;-145.06;0.00;60892.56;4867001;28;20652;-90
2022/04/12 02:38:45;;;;;;;;;;;;;;;-145.06;0.00;60892.56;4879765;28;19916;-90
2022/04/12 02:41:24;;;;;;;;;;;;;;;-145.06;0.00;60892.56;4880152;28;20007;-90
2022/04/12 02:44:03;;;;;;;;;;;;;;;-145.06;0.00;60892.56;4896326;28;19917;-89
2022/04/12 02:46:45;;;;;;;;;;;;;;;-145.06;0.00;60892.56;4883571;28;19912;-91
2022/04/12 02:49:24;;;;;;;;;;;;;;;-145.06;0.00;60892.56;4904087;28;19920;-90
2022/04/12 02:52:03;;;;;;;;;;;;;;;-145.06;0.00;60892.56;4889757;28;19959;-90
2022/04/12 02:54:43;;;;;;;;;;;;;;;-145.06;0.00;60892.56;4886396;28;19920;-90
2022/04/12 02:57:22;;;;;;;;;;;;;;;-145.06;0.00;60892.56;4878349;28;19912;-89
2022/04/12 03:00:03;;;;;;;;;;;;;;;-145.06;0.00;60892.56;4900137;28;19921;-89
2022/04/12 03:02:41;;;;;;;;;;;;;;;-145.06;0.00;60892.56;4882258;28;19916;-90
2022/04/12 03:05:20;;;;;;;;;;;;;;;-145.06;0.00;60892.56;4877730;28;20310;-90
2022/04/12 03:07:59;;;;;;;;;;;;;;;-145.06;0.00;60892.56;4884352;28;20010;-90
2022/04/12 03:10:38;;;;;;;;;;;;;;;-145.06;0.00;60892.56;4884199;28;20254;-90
2022/04/12 03:13:17;;;;;;;;;;;;;;;-145.06;0.00;60892.56;4896798;28;19909;-89
2022/04/12 03:16:02;;;;;;;;;;;;;;;-145.06;0.00;60892.56;4917055;27;19932;-90
2022/04/12 03:18:41;;;;;;;;;;;;;;;-145.06;0.00;60892.56;4902013;28;19920;-89
2022/04/12 03:21:20;;;;;;;;;;;;;;;-145.06;0.00;60892.56;4884586;28;19916;-89
2022/04/12 03:24:05;;;;;;;;;;;;;;;-145.06;0.00;60892.56;4874601;28;19921;-89
2022/04/12 03:26:44;;;;;;;;;;;;;;;-145.06;0.00;60892.56;4878288;28;19964;-90
2022/04/12 03:29:25;;;;;;;;;;;;;;;-145.06;0.00;60892.56;4873213;28;19981;-90
2022/04/12 03:32:04;;;;;;;;;;;;;;;-145.06;0.00;60892.56;4875422;28;19948;-90
2022/04/12 03:34:44;;;;;;;;;;;;;;;-145.06;0.00;60892.56;4875819;28;19921;-90
2022/04/12 03:37:34;;;;;;;;;;;;;;;-145.06;0.00;60892.56;4878852;28;20421;-91
2022/04/12 03:40:16;;;;;;;;;;;;;;;-145.06;0.00;60892.56;4881597;28;20255;-92
2022/04/12 03:42:55;;;;;;;;;;;;;;;-145.06;0.00;60892.56;4878185;28;19924;-91
2022/04/12 03:45:34;;;;;;;;;;;;;;;-145.06;0.00;60892.56;4890201;28;19916;-90
2022/04/12 03:48:16;;;;;;;;;;;;;;;-145.06;0.00;60892.56;4880837;28;20405;-90
2022/04/12 03:50:55;;;;;;;;;;;;;;;-145.06;0.00;60892.56;4877564;28;19925;-91
2022/04/12 03:53:39;;;;;;;;;;;;;;;-145.06;0.00;60892.56;4879637;28;19971;-91
2022/04/12 03:56:19;;;;;;;;;;;;;;;-145.06;0.00;60892.56;4881230;28;19925;-89
2022/04/12 03:58:58;;;;;;;;;;;;;;;-145.06;0.00;60892.56;4873254;28;19921;-90
2022/04/12 04:01:37;;;;;;;;;;;;;;;-145.06;0.00;60892.56;4878870;28;19920;-89
2022/04/12 04:04:17;;;;;;;;;;;;;;;-145.06;0.00;60892.56;4891553;28;19925;-89
2022/04/12 04:06:56;;;;;;;;;;;;;;;10.63;0.00;60892.56;4882963;28;19920;-89
2022/04/12 04:09:35;;;;;;;;;;;;;;;10.61;0.00;60892.56;4887295;28;19928;-88
2022/04/12 04:12:14;;;;;;;;;;;;;;;10.57;0.00;60892.56;4885746;28;19917;-90
2022/04/12 04:14:53;;;;;;;;;;;;;;;10.53;0.00;60892.56;4874821;28;19920;-89
2022/04/12 04:17:35;;;;;;;;;;;;;;;10.50;0.00;60892.56;4881811;28;19936;-91
2022/04/12 04:20:15;;;;;;;;;;;;;;;10.48;0.00;60892.56;4880313;28;19920;-91
2022/04/12 04:22:54;;;;;;;;;;;;;;;10.44;0.00;60892.56;4869853;28;19917;-91
2022/04/12 04:25:33;;;;;;;;;;;;;;;10.68;0.00;60892.56;4891186;28;19917;-90
2022/04/12 04:28:12;;;;;;;;;;;;;;;10.41;0.00;60892.56;4867081;28;19920;-90
2022/04/12 04:30:51;;;;;;;;;;;;;;;10.38;0.00;60892.56;4882455;28;20007;-89
2022/04/12 04:33:30;;;;;;;;;;;;;;;10.37;0.00;60892.56;4881549;28;19916;-90
2022/04/12 04:36:09;;;;;;;;;;;;;;;-145.06;0.00;60892.56;4890980;28;19925;-89
2022/04/12 04:38:48;;;;;;;;;;;;;;;-145.06;0.00;60892.56;4881378;28;20387;-90
2022/04/12 04:41:27;;;;;;;;;;;;;;;-145.06;0.00;60892.56;4864223;28;19921;-90
2022/04/12 04:44:07;;;;;;;;;;;;;;;-145.06;0.00;60892.56;4872988;28;19920;-89
2022/04/12 04:46:47;;;;;;;;;;;;;;;-145.06;0.00;60892.56;4881364;28;20505;-89
2022/04/12 04:49:26;;;;;;;;;;;;;;;-145.06;0.00;60892.56;4882117;28;20433;-90
2022/04/12 04:52:05;;;;;;;;;;;;;;;-145.06;0.00;60892.56;4880160;28;19968;-90
2022/04/12 04:54:44;;;;;;;;;;;;;;;-145.06;0.00;60892.56;4871289;28;20019;-90
2022/04/12 04:57:23;;;;;;;;;;;;;;;-145.06;0.00;60892.56;4869930;28;19951;-91
2022/04/12 05:00:05;;;;;;;;;;;;;;;-145.06;0.00;60892.56;4892428;28;19909;-90
2022/04/12 05:02:48;;;;;;;;;;;;;;;-145.06;0.00;60892.56;4887481;28;19928;-90
2022/04/12 05:05:27;;;;;;;;;;;;;;;-145.06;0.00;60892.56;4872014;28;19947;-89
2022/04/12 05:08:12;;;;;;;;;;;;;;;-145.06;0.00;60892.56;4874348;28;19944;-90
2022/04/12 05:10:51;;;;;;;;;;;;;;;-145.06;0.00;60892.56;4875276;28;19951;-90
2022/04/12 05:13:33;;;;;;;;;;;;;;;-145.06;0.00;60892.56;4888241;28;19964;-91
2022/04/12 05:16:12;;;;;;;;;;;;;;;-145.06;0.00;60892.56;4901070;28;20370;-89
2022/04/12 05:18:51;;;;;;;;;;;;;;;-145.06;0.00;60892.56;4880764;28;19917;-89
2022/04/12 05:21:30;;;;;;;;;;;;;;;-145.06;0.00;60892.56;4881660;28;19916;-89
2022/04/12 05:24:09;;;;;;;;;;;;;;;-145.06;0.00;60892.56;4881216;28;19916;-90
2022/04/12 05:26:48;;;;;;;;;;;;;;;-145.06;0.00;60892.56;4869699;28;19920;-89
2022/04/12 05:29:27;;;;;;;;;;;;;;;-145.06;0.00;60892.56;4870884;28;20029;-89
2022/04/12 05:32:09;;;;;;;;;;;;;;;-145.06;0.00;60892.56;4880421;28;19921;-88
2022/04/12 05:34:48;;;;;;;;;;;;;;;-145.06;0.00;60892.56;4864528;28;19936;-90
2022/04/12 05:37:28;;;;;;;;;;;;;;;-145.06;0.00;60892.56;4899986;28;19995;-89
2022/04/12 05:40:09;;;;;;;;;;;;;;;-145.06;0.00;60892.56;4874981;28;19916;-89
2022/04/12 05:42:48;;;;;;;;;;;;;;;-145.06;0.00;60892.56;4877149;28;19927;-89
2022/04/12 05:45:27;;;;;;;;;;;;;;;-145.06;0.00;60892.56;4870572;28;20275;-89
2022/04/12 05:48:06;;;;;;;;;;;;;;;-145.06;0.00;60892.56;4871842;28;19924;-90
2022/04/12 05:50:45;;;;;;;;;;;;;;;-145.06;0.00;60892.56;4879697;28;19920;-89
2022/04/12 05:53:25;;;;;;;;;;;;;;;-145.06;0.00;60892.56;4869174;28;19924;-89
2022/04/12 05:56:04;;;;;;;;;;;;;;;-145.06;0.00;60892.56;4880127;28;19916;-90
2022/04/12 05:58:43;;;;;;;;;;;;;;;-145.06;0.00;60892.56;4880075;28;20003;-90
2022/04/12 06:01:22;;;;;;;;;;;;;;;-145.06;0.00;60892.56;4877427;28;20294;-90
2022/04/12 06:04:07;;;;;;;;;;;;;;;-145.06;0.00;60892.56;4874519;28;20517;-90
2022/04/12 06:06:46;;;;;;;;;;;;;;;-145.06;0.00;60892.56;4901017;28;20043;-90
2022/04/12 06:09:25;;;;;;;;;;;;;;;-145.06;0.00;60892.56;4880250;28;20539;-89
2022/04/12 06:12:05;;;;;;;;;;;;;;;-145.06;0.00;60892.56;4873690;28;19921;-90
2022/04/12 06:14:44;;;;;;;;;;;;;;;-145.06;0.00;60892.56;4870328;28;19928;-89
2022/04/12 06:17:33;;;;;;;;;;;;;;;-145.06;0.00;60892.56;4902217;28;19917;-90
2022/04/12 06:20:14;;;;;;;;;;;;;;;-145.06;0.00;60892.56;4880317;28;19956;-90
2022/04/12 06:22:53;;;;;;;;;;;;;;;10.37;0.00;60892.56;4881366;28;20477;-89
2022/04/12 06:25:32;;;;;;;;;;;;;;;10.41;0.00;60892.56;4874182;28;19917;-90
2022/04/12 06:28:11;;;;;;;;;;;;;;;10.42;0.00;60892.56;4876919;28;20382;-90
2022/04/12 06:30:51;;;;;;;;;;;;;;;10.44;0.00;60892.56;4871960;28;19917;-89
2022/04/12 06:33:30;;;;;;;;;;;;;;;10.46;0.00;60892.56;4880907;28;19947;-90
2022/04/12 06:36:09;;;;;;;;;;;;;;;10.50;0.00;60892.56;4875464;28;19924;-91
2022/04/12 06:38:48;;;;;;;;;;;;;;;10.51;0.00;60892.56;4879248;28;20338;-90
2022/04/12 06:41:27;;;;;;;;;;;;;;;10.54;0.00;60892.56;4873914;28;19917;-91
2022/04/12 06:44:06;;;;;;;;;;;;;;;10.57;0.00;60892.56;4895314;28;19920;-89
2022/04/12 06:46:45;;;;;;;;;;;;;;;10.59;0.00;60892.56;4892810;28;19913;-90
2022/04/12 06:49:24;;;;;;;;;;;;;;;10.62;0.00;60892.56;4873247;28;19924;-90
2022/04/12 06:52:03;;;;;;;;;;;;;;;10.65;0.00;60892.56;4858758;28;19920;-86
2022/04/12 06:54:42;;;;;;;;;;;;;;;10.68;0.00;60892.56;4844095;28;19956;-89
2022/04/12 06:57:21;;;;;;;;;;;;;;;-145.06;0.00;60892.56;4860688;28;19924;-89
2022/04/12 07:00:00;;;;;;;;;;;;;;;-145.06;0.00;60892.56;4852471;28;20446;-90
2022/04/12 07:02:40;;;;;;;;;;;;;;;-145.06;0.00;60892.56;4855796;28;19921;-90
2022/04/12 07:05:19;;;;;;;;;;;;;;;-145.06;0.00;60892.56;4856279;28;20334;-89
2022/04/12 07:07:58;;;;;;;;;;;;;;;-145.06;0.00;60892.56;4856114;28;19921;-90
2022/04/12 07:10:37;;;;;;;;;;;;;;;-145.06;0.00;60892.56;4859669;28;20359;-90
2022/04/12 07:13:16;;;;;;;;;;;;;;;-145.06;0.00;60892.56;4849912;28;19928;-90
2022/04/12 07:15:55;;;;;;;;;;;;;;;-145.06;0.00;60892.56;4864689;28;20405;-89
2022/04/12 07:18:34;;;;;;;;;;;;;;;-145.06;0.00;60892.56;4848669;28;19921;-90
2022/04/12 07:21:15;;;;;;;;;;;;;;;-145.06;0.00;60892.56;4859092;28;19921;-89
2022/04/12 07:23:55;;;;;;;;;;;;;;;-145.06;0.00;60892.56;4863597;28;19964;-90
2022/04/12 07:26:34;;;;;;;;;;;;;;;-145.06;0.00;60892.56;4847180;28;19921;-89
2022/04/12 07:29:13;;;;;;;;;;;;;;;-145.06;0.00;60892.56;4844744;28;19917;-90
2022/04/12 07:31:52;;;;;;;;;;;;;;;-145.06;0.00;60892.56;4857949;28;19916;-90
2022/04/12 07:34:31;;;;;;;;;;;;;;;-145.06;0.00;60892.56;4874942;28;19925;-89
2022/04/12 07:37:13;;;;;;;;;;;;;;;-145.06;0.00;60892.56;4855334;28;19921;-91
2022/04/12 07:39:53;;;;;;;;;;;;;;;-145.06;0.00;60892.56;4869586;28;20287;-90
2022/04/12 07:42:33;;;;;;;;;;;;;;;-145.06;0.00;60892.56;4853756;28;19925;-91
2022/04/12 07:45:15;;;;;;;;;;;;;;;-145.06;0.00;60892.56;4864842;28;19913;-91
2022/04/12 07:47:57;;;;;;;;;;;;;;;-145.06;0.00;60892.56;4863222;28;19916;-90
2022/04/12 07:50:36;;;;;;;;;;;;;;;-145.06;0.00;60892.56;4847716;28;19921;-91
2022/04/12 07:53:15;;;;;;;;;;;;;;;-145.06;0.00;60892.56;4851361;28;19925;-90
2022/04/12 07:55:53;;;;;;;;;;;;;;;-145.06;0.00;60892.56;4847994;28;20008;-91
2022/04/12 07:58:32;;;;;;;;;;;;;;;-145.06;0.00;60892.56;4849256;28;19918;-90
2022/04/12 08:01:12;;;;;;;;;;;;;;;-145.06;0.00;60892.56;4850656;28;19925;-90
2022/04/12 08:03:50;;;;;;;;;;;;;;;-145.06;0.00;60892.56;4882627;28;19917;-90
2022/04/12 08:06:30;;;;;;;;;;;;;;;13.12;0.00;60892.56;4856945;28;19929;-90
2022/04/12 08:09:09;;;;;;;;;;;;;;;13.28;0.00;60892.56;4863240;28;19916;-91
2022/04/12 08:11:48;;;;;;;;;;;;;;;-145.06;0.00;60892.56;4853021;28;19995;-90
2022/04/12 08:14:27;;;;;;;;;;;;;;;-145.06;0.00;60892.56;4855529;28;19921;-90
2022/04/12 08:17:06;;;;;;;;;;;;;;;-145.06;0.00;60892.56;4856146;28;19925;-90
2022/04/12 08:19:45;;;;;;;;;;;;;;;-145.06;0.00;60892.56;4849029;28;19913;-91
2022/04/12 08:22:24;;;;;;;;;;;;;;;-145.06;0.00;60892.56;4858756;28;19956;-90
2022/04/12 08:25:04;;;;;;;;;;;;;;;-145.06;0.00;60892.56;4862076;28;19917;-91
2022/04/12 08:27:42;;;;;;;;;;;;;;;-145.06;0.00;60892.56;4857774;28;19921;-91
2022/04/12 08:30:22;;;;;;;;;;;;;;;14.37;0.00;60892.56;4893909;28;19913;-90
2022/04/12 08:33:02;;;;;;;;;;;;;;;14.51;0.00;60892.56;4900568;28;19913;-91
2022/04/12 08:35:42;;;;;;;;;;;;;;;-145.06;0.00;60892.56;4869544;28;19925;-90
2022/04/12 08:38:21;;;;;;;;;;;;;;;-145.06;0.00;60892.56;4880716;28;19956;-90
2022/04/12 08:41:01;;;;;;;;;;;;;;;-145.06;0.00;60892.56;4857486;28;19968;-90
2022/04/12 08:43:40;;;;;;;;;;;;;;;-145.06;0.00;60892.56;4881854;28;20256;-90
2022/04/12 08:46:21;;;;;;;;;;;;;;;-145.06;0.00;60892.56;4857074;28;19933;-91
2022/04/12 08:49:00;;;;;;;;;;;;;;;-145.06;0.00;60892.56;4855502;28;19917;-91
2022/04/12 08:51:41;;;;;;;;;;;;;;;-145.06;0.00;60892.56;4857673;28;22736;-90
2022/04/12 08:54:20;;;;;;;;;;;;;;;-145.06;0.00;60892.56;4864968;28;19920;-92
2022/04/12 08:56:59;;;;;;;;;;;;;;;-145.06;0.00;60892.56;4888192;28;19917;-91
2022/04/12 08:59:39;;;;;;;;;;;;;;;-145.06;0.00;60892.56;4855816;28;19917;-92
2022/04/12 09:02:18;;;;;;;;;;;;;;;-145.06;0.00;60892.56;4851131;28;19917;-90
2022/04/12 09:04:57;;;;;;;;;;;;;;;-145.06;0.00;60892.56;4864109;28;19917;-91
2022/04/12 09:07:43;;;;;;;;;;;;;;;-145.06;0.00;60892.56;4851846;28;20011;-90
2022/04/12 09:10:35;;;;;;;;;;;;;;;-145.06;0.00;60892.56;4858184;28;19917;-90
2022/04/12 09:13:14;;;;;;;;;;;;;;;-145.06;0.00;60892.56;4873663;28;20433;-89
2022/04/12 09:15:53;;;;;;;;;;;;;;;-145.06;0.00;60892.56;4865162;28;19951;-92
2022/04/12 09:18:37;;;;;;;;;;;;;;;-145.06;0.00;60892.56;4862125;28;19916;-92
2022/04/12 09:21:23;;;;;;;;;;;;;;;-145.06;0.00;60892.56;4855472;28;19921;-92
2022/04/12 09:24:03;;;;;;;;;;;;;;;-145.06;0.00;60892.56;4876053;28;19956;-92
2022/04/12 09:26:42;;;;;;;;;;;;;;;-145.06;0.00;60892.56;4856727;28;19917;-91
2022/04/12 09:29:25;;;;;;;;;;;;;;;-145.06;0.00;60892.56;4852525;28;19921;-90
2022/04/12 09:32:05;;;;;;;;;;;;;;;17.18;0.00;60892.56;4858458;28;19916;-91
2022/04/12 09:34:44;;;;;;;;;;;;;;;17.10;0.00;60892.56;4861353;28;19925;-91
2022/04/12 09:37:27;;;;;;;;;;;;;;;17.18;0.00;60892.56;4866125;28;19921;-89
2022/04/12 09:40:13;;;;;;;;;;;;;;;-145.06;0.00;60892.56;4852552;28;19917;-91
2022/04/12 09:42:54;;;;;;;;;;;;;;;-145.06;0.00;60892.56;4855357;28;20355;-90
2022/04/12 09:45:33;;;;;;;;;;;;;;;-145.06;0.00;60892.56;4864410;28;19916;-90
2022/04/12 09:48:12;;;;;;;;;;;;;;;-145.06;0.00;60892.56;4861039;28;19916;-90
2022/04/12 09:50:57;;;;;;;;;;;;;;;-145.06;0.00;60892.56;4859624;28;19913;-92
2022/04/12 09:53:38;;;;;;;;;;;;;;;-145.06;0.00;60892.56;4853411;28;19924;-91
2022/04/12 09:56:25;;;;;;;;;;;;;;;-145.06;0.00;60892.56;4856256;28;19913;-91
2022/04/12 09:59:06;;;;;;;;;;;;;;;18.48;0.00;60892.56;4859086;28;19916;-92
2022/04/12 10:01:45;;;;;;;;;;;;;;;21.08;0.00;60892.56;4863678;28;19917;-91
2022/04/12 10:04:24;;;;;;;;;;;;;;;18.43;0.00;60892.56;4856899;28;19917;-92
2022/04/12 10:07:05;;;;;;;;;;;;;;;-145.06;0.00;60892.56;4861724;28;19925;-90
2022/04/12 10:09:44;;;;;;;;;;;;;;;-145.06;0.00;60892.56;4883660;28;19940;-89
2022/04/12 10:12:24;;;;;;;;;;;;;;;-145.06;0.00;60892.56;4848561;28;19913;-88
2022/04/12 10:15:03;;;;;;;;;;;;;;;-145.06;0.00;60892.56;4858212;28;19925;-89
2022/04/12 10:17:43;;;;;;;;;;;;;;;-145.06;0.00;60892.56;4847069;28;19917;-88
2022/04/12 10:20:22;;;;;;;;;;;;;;;-145.06;0.00;60892.56;4872993;28;19910;-89
2022/04/12 10:23:02;;;;;;;;;;;;;;;-145.06;0.00;60892.56;4870767;28;19913;-89
2022/04/12 10:25:40;;;;;;;;;;;;;;;-145.06;0.00;60892.56;4846580;28;19917;-90
2022/04/12 10:28:21;;;;;;;;;;;;;;;-145.06;0.00;60892.56;4851322;28;19917;-91
2022/04/12 10:31:20;;;;;;;;;;;;;;;-145.06;0.00;60892.56;4857894;28;19921;-91
2022/04/12 10:34:09;;;;;;;;;;;;;;;-145.06;0.00;60892.56;4847450;28;19921;-91
2022/04/12 10:37:04;;;;;;;;;;;;;;;-145.06;0.00;60892.56;4855147;28;19917;-92
2022/04/12 10:39:48;;;;;;;;;;;;;;;-145.06;0.00;60892.56;4860008;28;19917;-90
2022/04/12 10:42:29;;;;;;;;;;;;;;;20.91;0.00;60892.56;4849567;28;19917;-89
2022/04/12 10:45:10;;;;;;;;;;;;;;;-145.06;0.00;60892.56;4853151;28;19913;-90
2022/04/12 10:47:55;;;;;;;;;;;;;;;-145.06;0.00;60892.56;4859900;28;19921;-89
2022/04/12 10:50:43;;;;;;;;;;;;;;;-145.06;0.00;60892.56;4858941;28;19959;-90
2022/04/12 10:53:38;;;;;;;;;;;;;;;-145.06;0.00;60892.56;4864330;28;20374;-89
2022/04/12 10:56:17;;;;;;;;;;;;;;;-145.06;0.00;60892.56;4859794;28;19917;-90
2022/04/12 10:58:56;;;;;;;;;;;;;;;23.67;0.00;60892.56;4857141;28;20019;-89
2022/04/12 11:01:36;;;;;;;;;;;;;;;22.37;0.00;60892.56;4859822;28;20355;-90
2022/04/12 11:04:25;;;;;;;;;;;;;;;-145.06;0.00;60892.56;4849739;28;19913;-89
2022/04/12 11:07:06;;;;;;;;;;;;;;;-145.06;0.00;60892.56;4869450;28;19944;-89
2022/04/12 11:10:04;;;;;;;;;;;;;;;-145.06;0.00;60892.56;4857183;28;19939;-90
2022/04/12 11:12:43;;;;;;;;;;;;;;;-145.06;0.00;60892.56;4857034;28;19921;-89
2022/04/12 11:15:27;;;;;;;;;;;;;;;-145.06;0.00;60892.56;4863065;28;19920;-89
2022/04/12 11:18:10;;;;;;;;;;;;;;;22.67;0.00;60892.56;4870716;28;19921;-90
2022/04/12 11:20:59;;;;;;;;;;;;;;;-145.06;0.00;60892.56;4865380;28;19920;-89
2022/04/12 11:23:59;;;;;;;;;;;;;;;-145.06;0.00;60892.56;4875100;28;20004;-90
2022/04/12 11:26:48;;;;;;;;;;;;;;;-145.06;0.00;60892.56;4879964;28;19917;-90
2022/04/12 11:29:27;;;;;;;;;;;;;;;-145.06;0.00;60892.56;4862669;28;19921;-90
2022/04/12 11:32:07;;;;;;;;;;;;;;;-145.06;0.00;60892.56;4849937;28;19920;-90
2022/04/12 11:34:45;;;;;;;;;;;;;;;-145.06;0.00;60892.56;4857214;28;19921;-90
2022/04/12 11:37:24;;;;;;;;;;;;;;;-145.06;0.00;60892.56;4869461;28;19917;-90
2022/04/12 11:40:03;;;;;;;;;;;;;;;-145.06;0.00;60892.56;4852892;28;19917;-90
2022/04/12 11:42:45;;;;;;;;;;;;;;;-145.06;0.00;60892.56;4858916;28;19917;-90
2022/04/12 11:45:31;;;;;;;;;;;;;;;-145.06;0.00;60892.56;4861241;28;19921;-90
2022/04/12 11:48:10;;;;;;;;;;;;;;;-145.06;0.00;60892.56;4865210;28;19917;-89
2022/04/12 11:50:53;;;;;;;;;;;;;;;-145.06;0.00;60892.56;4854757;28;19920;-89
2022/04/12 11:53:32;;;;;;;;;;;;;;;-145.06;0.00;60892.56;4846828;28;19925;-90
2022/04/12 11:56:11;;;;;;;;;;;;;;;-145.06;0.00;60892.56;4866947;28;19917;-90
2022/04/12 11:58:50;;;;;;;;;;;;;;;-145.06;0.00;60892.56;4870113;28;19917;-89
2022/04/12 12:01:29;;;;;;;;;;;;;;;-145.06;0.00;60892.56;4881572;28;19916;-90
2022/04/12 12:04:09;;;;;;;;;;;;;;;-145.06;0.00;60892.56;4856655;28;19917;-89
2022/04/12 12:06:54;;;;;;;;;;;;;;;-145.06;0.00;60892.56;4857277;28;19920;-90
2022/04/12 12:09:34;;;;;;;;;;;;;;;-145.06;0.00;60892.56;4871934;28;20390;-89
2022/04/12 12:12:13;;;;;;;;;;;;;;;-145.06;0.00;60892.56;4846616;28;19917;-90
2022/04/12 12:14:52;;;;;;;;;;;;;;;-145.06;0.00;60892.56;4868349;28;19913;-90
2022/04/12 12:17:31;;;;;;;;;;;;;;;-145.06;0.00;60892.56;4899190;28;19932;-91
2022/04/12 12:20:10;;;;;;;;;;;;;;;-145.06;0.00;60892.56;4866195;28;19929;-89
2022/04/12 12:22:51;;;;;;;;;;;;;;;-145.06;0.00;60892.56;4855998;28;19917;-90
2022/04/12 12:25:37;;;;;;;;;;;;;;;-145.06;0.00;60892.56;4851878;28;19917;-89
2022/04/12 12:28:17;;;;;;;;;;;;;;;-145.06;0.00;60892.56;4860895;28;19928;-89
2022/04/12 12:30:56;;;;;;;;;;;;;;;-145.06;0.00;60892.56;4848836;28;20319;-90
2022/04/12 12:33:44;;;;;;;;;;;;;;;-145.06;0.00;60892.56;4856564;28;19964;-89
2022/04/12 12:36:24;;;;;;;;;;;;;;;-145.06;0.00;60892.56;4854550;28;19992;-90
2022/04/12 12:39:05;;;;;;;;;;;;;;;-145.06;0.00;60892.56;4854628;28;20283;-91
2022/04/12 12:41:44;;;;;;;;;;;;;;;-145.06;0.00;60892.56;4859544;28;20000;-89
2022/04/12 12:44:24;;;;;;;;;;;;;;;-145.06;0.00;60892.56;4850031;28;19917;-90
2022/04/12 12:47:04;;;;;;;;;;;;;;;-145.06;0.00;60892.56;4863999;28;20362;-90
2022/04/12 12:49:43;;;;;;;;;;;;;;;-145.06;0.00;60892.56;4853776;28;19986;-90
2022/04/12 12:52:23;;;;;;;;;;;;;;;-145.06;0.00;60892.56;4860450;28;19920;-89
2022/04/12 12:55:06;;;;;;;;;;;;;;;-145.06;0.00;60892.56;4850379;28;19925;-89
2022/04/12 12:57:46;;;;;;;;;;;;;;;-145.06;0.00;60892.56;4854835;28;19917;-90
2022/04/12 13:00:28;;;;;;;;;;;;;;;-145.06;0.00;60892.56;4849382;28;19925;-89
2022/04/12 13:03:12;;;;;;;;;;;;;;;-145.06;0.00;60892.56;4861360;28;19917;-89
2022/04/12 13:05:59;;;;;;;;;;;;;;;-145.06;0.00;60892.56;4872932;28;20362;-89
2022/04/12 13:08:38;;;;;;;;;;;;;;;-145.06;0.00;60892.56;4861895;28;19956;-89
2022/04/12 13:11:22;;;;;;;;;;;;;;;24.95;0.00;60892.56;4874407;28;20378;-89
2022/04/12 13:14:02;;;;;;;;;;;;;;;-145.06;0.00;60892.56;4851447;28;20008;-90
2022/04/12 13:16:40;;;;;;;;;;;;;;;-145.06;0.00;60892.56;4858595;28;19916;-90
2022/04/12 13:19:23;;;;;;;;;;;;;;;-145.06;0.00;60892.56;4863997;28;19913;-91
2022/04/12 13:22:03;;;;;;;;;;;;;;;-145.06;0.00;60892.56;4846473;28;20367;-90
2022/04/12 13:24:41;;;;;;;;;;;;;;;-145.06;0.00;60892.56;4851940;28;19964;-89
2022/04/12 13:27:21;;;;;;;;;;;;;;;-145.06;0.00;60892.56;4853906;28;19921;-90
2022/04/12 13:30:00;;;;;;;;;;;;;;;-145.06;0.00;60892.56;4843633;28;19960;-90
2022/04/12 13:32:39;;;;;;;;;;;;;;;-145.06;0.00;60892.56;4849188;28;19917;-89
2022/04/12 13:35:20;;;;;;;;;;;;;;;-145.06;0.00;60892.56;4849151;28;20311;-90
2022/04/12 13:37:58;;;;;;;;;;;;;;;-145.06;0.00;60892.56;4844339;28;19917;-89
2022/04/12 13:40:37;;;;;;;;;;;;;;;-145.06;0.00;60892.56;4876981;28;20410;-90
2022/04/12 13:43:16;;;;;;;;;;;;;;;-145.06;0.00;60892.56;4859490;28;19921;-88
2022/04/12 13:45:55;;;;;;;;;;;;;;;-145.06;0.00;60892.56;4852270;28;19917;-89
2022/04/12 13:48:36;;;;;;;;;;;;;;;-145.06;0.00;60892.56;4855219;28;19964;-89